sensor_id;sensor_type;location;lat;lon;timestamp;pressure;altitude;pressure_sealevel;temperature;humidity
62789;BME280;66401;42.016;21.454;2023-02-03T00:00:16;98754.63;;;3.29;82.98
62789;BME280;66401;42.016;21.454;2023-02-03T00:02:42;98782.56;;;3.53;84.66
62789;BME280;66401;42.016;21.454;2023-02-03T00:05:08;98781.75;;;3.62;83.86
62789;BME280;66401;42.016;21.454;2023-02-03T00:07:34;98783.25;;;3.55;84.23
62789;BME280;66401;42.016;21.454;2023-02-03T00:10:01;98782.56;;;3.53;83.67
62789;BME280;66401;42.016;21.454;2023-02-03T00:12:27;98774.97;;;3.61;84.15
62789;BME280;66401;42.016;21.454;2023-02-03T00:14:53;98770.22;;;3.66;84.10
62789;BME280;66401;42.016;21.454;2023-02-03T00:17:18;98762.78;;;3.63;84.37
62789;BME280;66401;42.016;21.454;2023-02-03T00:19:44;98751.00;;;3.70;82.68
62789;BME280;66401;42.016;21.454;2023-02-03T00:22:09;98748.41;;;3.80;82.66
62789;BME280;66401;42.016;21.454;2023-02-03T00:24:35;98759.53;;;3.81;82.41
62789;BME280;66401;42.016;21.454;2023-02-03T00:27:00;98766.59;;;3.79;81.75
62789;BME280;66401;42.016;21.454;2023-02-03T00:29:26;98771.72;;;3.98;81.49
62789;BME280;66401;42.016;21.454;2023-02-03T00:31:52;98744.84;;;4.00;82.73
62789;BME280;66401;42.016;21.454;2023-02-03T00:34:18;98764.38;;;4.03;81.74
62789;BME280;66401;42.016;21.454;2023-02-03T00:36:44;98790.69;;;4.16;81.90
62789;BME280;66401;42.016;21.454;2023-02-03T00:39:13;98782.81;;;4.27;81.76
62789;BME280;66401;42.016;21.454;2023-02-03T00:41:39;98781.41;;;4.33;81.15
62789;BME280;66401;42.016;21.454;2023-02-03T00:44:05;98796.88;;;4.43;81.33
62789;BME280;66401;42.016;21.454;2023-02-03T00:46:31;98799.59;;;4.31;81.90
62789;BME280;66401;42.016;21.454;2023-02-03T00:48:56;98811.31;;;4.26;83.00
62789;BME280;66401;42.016;21.454;2023-02-03T00:51:22;98822.56;;;4.35;82.66
62789;BME280;66401;42.016;21.454;2023-02-03T00:53:48;98819.84;;;4.36;81.93
62789;BME280;66401;42.016;21.454;2023-02-03T00:56:14;98805.97;;;4.47;80.84
62789;BME280;66401;42.016;21.454;2023-02-03T00:58:39;98810.56;;;4.43;82.23
62789;BME280;66401;42.016;21.454;2023-02-03T01:01:06;98805.84;;;4.39;82.12
62789;BME280;66401;42.016;21.454;2023-02-03T01:03:31;98813.03;;;4.45;81.79
62789;BME280;66401;42.016;21.454;2023-02-03T01:06:07;98816.41;;;4.55;79.89
62789;BME280;66401;42.016;21.454;2023-02-03T01:08:33;98830.78;;;4.57;79.95
62789;BME280;66401;42.016;21.454;2023-02-03T01:11:05;98834.34;;;4.47;82.32
62789;BME280;66401;42.016;21.454;2023-02-03T01:13:30;98833.91;;;4.51;81.12
62789;BME280;66401;42.016;21.454;2023-02-03T01:15:56;98836.91;;;4.47;80.17
62789;BME280;66401;42.016;21.454;2023-02-03T01:18:21;98840.56;;;4.54;81.29
62789;BME280;66401;42.016;21.454;2023-02-03T01:20:47;98826.16;;;4.51;80.38
62789;BME280;66401;42.016;21.454;2023-02-03T01:23:12;98820.66;;;4.37;81.22
62789;BME280;66401;42.016;21.454;2023-02-03T01:25:38;98819.97;;;4.44;81.08
62789;BME280;66401;42.016;21.454;2023-02-03T01:28:03;98805.81;;;4.48;78.80
62789;BME280;66401;42.016;21.454;2023-02-03T01:30:30;98797.41;;;4.56;78.38
62789;BME280;66401;42.016;21.454;2023-02-03T01:32:55;98798.72;;;4.60;79.70
62789;BME280;66401;42.016;21.454;2023-02-03T01:35:21;98790.88;;;4.52;79.88
62789;BME280;66401;42.016;21.454;2023-02-03T01:37:46;98792.78;;;4.50;80.13
62789;BME280;66401;42.016;21.454;2023-02-03T01:40:12;98811.81;;;4.39;80.76
62789;BME280;66401;42.016;21.454;2023-02-03T01:42:37;98809.53;;;4.26;79.68
62789;BME280;66401;42.016;21.454;2023-02-03T01:45:03;98820.91;;;4.34;79.97
62789;BME280;66401;42.016;21.454;2023-02-03T01:47:41;98823.78;;;4.30;81.57
62789;BME280;66401;42.016;21.454;2023-02-03T01:50:18;98835.19;;;4.18;81.53
62789;BME280;66401;42.016;21.454;2023-02-03T01:52:49;98839.69;;;4.16;78.64
62789;BME280;66401;42.016;21.454;2023-02-03T01:55:19;98856.91;;;4.16;80.23
62789;BME280;66401;42.016;21.454;2023-02-03T01:58:05;98862.75;;;4.27;78.05
62789;BME280;66401;42.016;21.454;2023-02-03T02:00:33;98866.94;;;4.28;78.74
62789;BME280;66401;42.016;21.454;2023-02-03T02:02:59;98856.91;;;4.25;78.19
62789;BME280;66401;42.016;21.454;2023-02-03T02:06:00;98854.03;;;4.28;77.27
62789;BME280;66401;42.016;21.454;2023-02-03T02:08:27;98854.19;;;4.27;76.40
62789;BME280;66401;42.016;21.454;2023-02-03T02:10:54;98841.44;;;4.25;77.72
62789;BME280;66401;42.016;21.454;2023-02-03T02:13:20;98858.78;;;4.33;77.70
62789;BME280;66401;42.016;21.454;2023-02-03T02:41:19;98907.34;;;3.80;82.55
62789;BME280;66401;42.016;21.454;2023-02-03T02:46:40;98896.19;;;3.69;83.37
62789;BME280;66401;42.016;21.454;2023-02-03T02:51:33;98906.69;;;3.47;84.70
62789;BME280;66401;42.016;21.454;2023-02-03T02:54:05;98913.50;;;3.48;83.32
62789;BME280;66401;42.016;21.454;2023-02-03T02:56:33;98923.03;;;3.57;82.92
62789;BME280;66401;42.016;21.454;2023-02-03T02:59:02;98935.63;;;3.60;83.73
62789;BME280;66401;42.016;21.454;2023-02-03T03:01:29;98929.47;;;3.42;84.56
62789;BME280;66401;42.016;21.454;2023-02-03T03:03:56;98939.38;;;3.47;83.59
62789;BME280;66401;42.016;21.454;2023-02-03T03:06:35;98947.22;;;3.45;83.81
62789;BME280;66401;42.016;21.454;2023-02-03T03:09:06;98950.91;;;3.52;83.14
62789;BME280;66401;42.016;21.454;2023-02-03T03:11:40;98965.44;;;3.53;83.81
62789;BME280;66401;42.016;21.454;2023-02-03T03:14:07;98965.94;;;3.47;83.97
62789;BME280;66401;42.016;21.454;2023-02-03T03:16:36;98944.47;;;3.37;83.95
62789;BME280;66401;42.016;21.454;2023-02-03T03:19:13;98929.34;;;3.43;83.02
62789;BME280;66401;42.016;21.454;2023-02-03T03:21:44;98926.22;;;3.40;84.23
62789;BME280;66401;42.016;21.454;2023-02-03T03:24:14;98926.44;;;3.37;84.31
62789;BME280;66401;42.016;21.454;2023-02-03T03:26:50;98916.06;;;3.17;82.94
62789;BME280;66401;42.016;21.454;2023-02-03T03:29:21;98928.06;;;3.28;84.70
62789;BME280;66401;42.016;21.454;2023-02-03T03:31:48;98924.78;;;3.26;82.49
62789;BME280;66401;42.016;21.454;2023-02-03T03:34:14;98921.81;;;3.21;82.75
62789;BME280;66401;42.016;21.454;2023-02-03T03:36:53;98916.66;;;3.21;83.63
62789;BME280;66401;42.016;21.454;2023-02-03T03:39:59;98934.22;;;3.47;81.72
62789;BME280;66401;42.016;21.454;2023-02-03T03:42:28;98930.50;;;3.30;83.03
62789;BME280;66401;42.016;21.454;2023-02-03T03:47:48;98935.81;;;3.07;83.34
62789;BME280;66401;42.016;21.454;2023-02-03T03:50:18;98945.63;;;2.93;83.67
62789;BME280;66401;42.016;21.454;2023-02-03T03:52:47;98949.88;;;3.03;83.01
62789;BME280;66401;42.016;21.454;2023-02-03T03:55:16;98953.31;;;3.13;82.00
62789;BME280;66401;42.016;21.454;2023-02-03T04:00:18;98958.34;;;3.15;82.03
62789;BME280;66401;42.016;21.454;2023-02-03T04:02:49;98952.56;;;2.39;86.74
62789;BME280;66401;42.016;21.454;2023-02-03T04:05:16;98958.34;;;2.52;84.93
62789;BME280;66401;42.016;21.454;2023-02-03T04:07:43;98975.03;;;2.58;84.77
62789;BME280;66401;42.016;21.454;2023-02-03T04:12:50;98984.34;;;2.38;85.59
62789;BME280;66401;42.016;21.454;2023-02-03T04:15:15;98985.97;;;2.39;87.04
62789;BME280;66401;42.016;21.454;2023-02-03T04:17:41;98964.19;;;2.54;85.34
62789;BME280;66401;42.016;21.454;2023-02-03T04:20:06;98981.00;;;2.58;84.71
62789;BME280;66401;42.016;21.454;2023-02-03T04:22:32;98974.09;;;2.59;84.80
62789;BME280;66401;42.016;21.454;2023-02-03T04:24:58;98972.09;;;2.63;83.91
62789;BME280;66401;42.016;21.454;2023-02-03T04:27:24;98967.19;;;2.59;85.36
62789;BME280;66401;42.016;21.454;2023-02-03T04:29:50;98968.84;;;2.61;84.43
62789;BME280;66401;42.016;21.454;2023-02-03T04:32:15;98940.38;;;2.41;83.75
62789;BME280;66401;42.016;21.454;2023-02-03T04:34:41;98968.59;;;2.64;83.25
62789;BME280;66401;42.016;21.454;2023-02-03T04:37:07;98968.66;;;2.73;81.91
62789;BME280;66401;42.016;21.454;2023-02-03T04:39:32;98968.31;;;2.67;83.40
62789;BME280;66401;42.016;21.454;2023-02-03T04:41:57;98965.13;;;2.53;82.70
62789;BME280;66401;42.016;21.454;2023-02-03T04:44:23;98979.19;;;2.38;83.40
62789;BME280;66401;42.016;21.454;2023-02-03T04:46:48;98982.97;;;2.34;84.23
62789;BME280;66401;42.016;21.454;2023-02-03T04:49:14;98989.75;;;2.35;84.53
62789;BME280;66401;42.016;21.454;2023-02-03T04:51:42;98996.41;;;2.58;83.18
62789;BME280;66401;42.016;21.454;2023-02-03T04:54:09;98992.00;;;2.49;83.03
62789;BME280;66401;42.016;21.454;2023-02-03T04:56:35;99016.09;;;2.48;83.07
62789;BME280;66401;42.016;21.454;2023-02-03T04:59:01;99009.53;;;2.55;84.05
62789;BME280;66401;42.016;21.454;2023-02-03T05:01:27;99015.88;;;2.51;84.19
62789;BME280;66401;42.016;21.454;2023-02-03T05:03:52;99013.88;;;2.76;81.28
62789;BME280;66401;42.016;21.454;2023-02-03T05:06:22;99022.72;;;2.62;81.40
62789;BME280;66401;42.016;21.454;2023-02-03T05:08:48;99018.63;;;2.59;81.11
62789;BME280;66401;42.016;21.454;2023-02-03T05:11:14;99016.78;;;2.50;81.84
62789;BME280;66401;42.016;21.454;2023-02-03T05:13:39;98997.97;;;2.18;84.56
62789;BME280;66401;42.016;21.454;2023-02-03T05:16:06;99016.00;;;2.39;81.04
62789;BME280;66401;42.016;21.454;2023-02-03T05:18:31;99003.09;;;2.50;79.97
62789;BME280;66401;42.016;21.454;2023-02-03T05:20:57;99017.38;;;2.54;79.73
62789;BME280;66401;42.016;21.454;2023-02-03T05:23:23;99011.53;;;2.52;79.13
62789;BME280;66401;42.016;21.454;2023-02-03T05:25:48;99017.97;;;2.46;80.49
62789;BME280;66401;42.016;21.454;2023-02-03T05:28:14;99025.69;;;2.46;81.45
62789;BME280;66401;42.016;21.454;2023-02-03T05:30:40;99025.91;;;2.54;79.46
62789;BME280;66401;42.016;21.454;2023-02-03T05:33:05;99032.41;;;2.58;78.37
62789;BME280;66401;42.016;21.454;2023-02-03T05:35:32;99030.72;;;2.48;78.33
62789;BME280;66401;42.016;21.454;2023-02-03T05:37:57;99023.22;;;2.77;76.37
62789;BME280;66401;42.016;21.454;2023-02-03T05:40:24;99027.94;;;2.72;76.27
62789;BME280;66401;42.016;21.454;2023-02-03T05:43:08;99031.72;;;2.56;75.42
62789;BME280;66401;42.016;21.454;2023-02-03T05:45:33;99031.94;;;2.65;76.92
62789;BME280;66401;42.016;21.454;2023-02-03T05:47:59;99034.63;;;2.63;75.83
62789;BME280;66401;42.016;21.454;2023-02-03T05:50:27;99038.03;;;2.64;76.83
62789;BME280;66401;42.016;21.454;2023-02-03T05:53:01;99031.78;;;2.45;77.05
62789;BME280;66401;42.016;21.454;2023-02-03T05:55:27;99035.50;;;2.52;76.18
62789;BME280;66401;42.016;21.454;2023-02-03T05:57:53;99043.31;;;2.51;78.21
62789;BME280;66401;42.016;21.454;2023-02-03T06:00:21;99042.47;;;2.62;77.88
62789;BME280;66401;42.016;21.454;2023-02-03T06:02:54;99040.84;;;2.61;75.51
62789;BME280;66401;42.016;21.454;2023-02-03T06:05:20;99039.88;;;2.73;73.68
62789;BME280;66401;42.016;21.454;2023-02-03T06:07:47;99039.88;;;2.73;74.63
62789;BME280;66401;42.016;21.454;2023-02-03T06:10:13;99042.19;;;2.76;75.79
62789;BME280;66401;42.016;21.454;2023-02-03T06:12:38;99034.41;;;2.87;73.88
62789;BME280;66401;42.016;21.454;2023-02-03T06:15:05;99039.97;;;3.03;73.32
62789;BME280;66401;42.016;21.454;2023-02-03T06:17:30;99037.81;;;3.08;71.48
62789;BME280;66401;42.016;21.454;2023-02-03T06:19:56;99042.72;;;3.11;69.74
62789;BME280;66401;42.016;21.454;2023-02-03T06:22:22;99046.72;;;3.25;71.90
62789;BME280;66401;42.016;21.454;2023-02-03T06:24:48;99047.59;;;3.35;72.43
62789;BME280;66401;42.016;21.454;2023-02-03T06:27:14;99049.38;;;3.35;71.60
62789;BME280;66401;42.016;21.454;2023-02-03T06:29:40;99046.56;;;3.38;73.39
62789;BME280;66401;42.016;21.454;2023-02-03T06:32:07;99051.13;;;3.34;72.34
62789;BME280;66401;42.016;21.454;2023-02-03T06:34:32;99050.69;;;3.50;68.17
62789;BME280;66401;42.016;21.454;2023-02-03T06:36:58;99057.25;;;3.64;68.53
62789;BME280;66401;42.016;21.454;2023-02-03T06:39:24;99060.94;;;3.71;68.70
62789;BME280;66401;42.016;21.454;2023-02-03T06:41:49;99057.28;;;3.73;67.21
62789;BME280;66401;42.016;21.454;2023-02-03T06:44:17;99048.66;;;3.84;69.16
62789;BME280;66401;42.016;21.454;2023-02-03T06:46:42;99037.28;;;3.87;66.55
62789;BME280;66401;42.016;21.454;2023-02-03T06:49:08;99038.78;;;3.89;65.77
62789;BME280;66401;42.016;21.454;2023-02-03T06:51:33;99030.50;;;3.95;65.15
62789;BME280;66401;42.016;21.454;2023-02-03T06:53:59;99046.72;;;4.07;67.30
62789;BME280;66401;42.016;21.454;2023-02-03T06:56:24;99045.66;;;4.19;65.98
62789;BME280;66401;42.016;21.454;2023-02-03T06:58:50;99044.44;;;4.23;64.72
62789;BME280;66401;42.016;21.454;2023-02-03T07:01:15;99050.69;;;4.30;62.79
62789;BME280;66401;42.016;21.454;2023-02-03T07:03:41;99066.72;;;4.34;64.33
62789;BME280;66401;42.016;21.454;2023-02-03T07:06:06;99075.41;;;4.33;62.51
62789;BME280;66401;42.016;21.454;2023-02-03T07:08:32;99072.16;;;4.41;62.18
62789;BME280;66401;42.016;21.454;2023-02-03T07:10:58;99075.84;;;4.48;62.72
62789;BME280;66401;42.016;21.454;2023-02-03T07:13:23;99084.16;;;4.61;62.88
62789;BME280;66401;42.016;21.454;2023-02-03T07:15:49;99080.91;;;4.69;61.28
62789;BME280;66401;42.016;21.454;2023-02-03T07:18:15;99082.00;;;4.76;62.64
62789;BME280;66401;42.016;21.454;2023-02-03T07:20:42;99077.81;;;4.84;61.11
62789;BME280;66401;42.016;21.454;2023-02-03T07:23:08;99071.69;;;4.95;61.37
62789;BME280;66401;42.016;21.454;2023-02-03T07:25:33;99081.59;;;5.00;60.87
62789;BME280;66401;42.016;21.454;2023-02-03T07:27:59;99083.22;;;5.10;58.72
62789;BME280;66401;42.016;21.454;2023-02-03T07:30:24;99087.72;;;5.18;58.10
62789;BME280;66401;42.016;21.454;2023-02-03T07:32:51;99075.75;;;5.27;59.40
62789;BME280;66401;42.016;21.454;2023-02-03T07:35:18;99076.66;;;5.55;58.88
62789;BME280;66401;42.016;21.454;2023-02-03T07:37:43;99080.81;;;5.75;56.72
62789;BME280;66401;42.016;21.454;2023-02-03T07:40:10;99074.31;;;6.08;55.38
62789;BME280;66401;42.016;21.454;2023-02-03T07:42:41;99072.16;;;6.76;53.41
62789;BME280;66401;42.016;21.454;2023-02-03T07:45:08;99077.03;;;7.67;52.02
62789;BME280;66401;42.016;21.454;2023-02-03T07:47:33;99086.28;;;9.21;47.62
62789;BME280;66401;42.016;21.454;2023-02-03T07:49:59;99089.56;;;10.81;42.97
62789;BME280;66401;42.016;21.454;2023-02-03T07:52:24;99084.78;;;12.12;39.34
62789;BME280;66401;42.016;21.454;2023-02-03T07:54:50;99100.25;;;13.43;36.92
62789;BME280;66401;42.016;21.454;2023-02-03T07:57:15;99108.75;;;14.56;34.11
62789;BME280;66401;42.016;21.454;2023-02-03T07:59:41;99109.44;;;14.78;34.18
62789;BME280;66401;42.016;21.454;2023-02-03T08:02:08;99103.44;;;15.10;32.06
62789;BME280;66401;42.016;21.454;2023-02-03T08:04:35;99116.56;;;12.45;39.15
62789;BME280;66401;42.016;21.454;2023-02-03T08:07:01;99109.09;;;9.98;42.75
62789;BME280;66401;42.016;21.454;2023-02-03T08:09:27;99120.38;;;9.66;42.12
62789;BME280;66401;42.016;21.454;2023-02-03T08:11:53;99127.38;;;8.42;45.36
62789;BME280;66401;42.016;21.454;2023-02-03T08:14:18;99126.75;;;8.14;46.20
62789;BME280;66401;42.016;21.454;2023-02-03T08:16:44;99119.97;;;8.29;45.45
62789;BME280;66401;42.016;21.454;2023-02-03T08:19:10;99112.63;;;8.43;45.22
62789;BME280;66401;42.016;21.454;2023-02-03T08:21:36;99120.97;;;12.00;38.28
62789;BME280;66401;42.016;21.454;2023-02-03T08:24:01;99116.78;;;13.51;33.55
62789;BME280;66401;42.016;21.454;2023-02-03T08:26:27;99122.03;;;13.79;33.19
62789;BME280;66401;42.016;21.454;2023-02-03T08:28:53;99117.59;;;15.09;32.44
62789;BME280;66401;42.016;21.454;2023-02-03T08:31:18;99104.72;;;13.50;34.20
62789;BME280;66401;42.016;21.454;2023-02-03T08:33:44;99129.66;;;13.03;35.01
62789;BME280;66401;42.016;21.454;2023-02-03T08:36:09;99123.69;;;12.37;37.27
62789;BME280;66401;42.016;21.454;2023-02-03T08:38:36;99130.50;;;11.79;38.23
62789;BME280;66401;42.016;21.454;2023-02-03T08:41:08;99130.09;;;11.06;37.82
62789;BME280;66401;42.016;21.454;2023-02-03T08:43:34;99140.56;;;10.36;40.71
62789;BME280;66401;42.016;21.454;2023-02-03T08:46:04;99142.22;;;10.29;39.46
62789;BME280;66401;42.016;21.454;2023-02-03T08:48:30;99142.13;;;11.53;37.98
62789;BME280;66401;42.016;21.454;2023-02-03T08:50:56;99141.50;;;13.69;34.58
62789;BME280;66401;42.016;21.454;2023-02-03T08:53:21;99142.91;;;14.69;33.44
62789;BME280;66401;42.016;21.454;2023-02-03T08:55:47;99148.13;;;14.63;31.36
62789;BME280;66401;42.016;21.454;2023-02-03T08:58:13;99163.06;;;17.43;29.14
62789;BME280;66401;42.016;21.454;2023-02-03T09:00:38;99150.84;;;17.99;28.61
62789;BME280;66401;42.016;21.454;2023-02-03T09:03:04;99156.16;;;20.49;24.41
62789;BME280;66401;42.016;21.454;2023-02-03T09:05:30;99154.31;;;21.86;21.76
62789;BME280;66401;42.016;21.454;2023-02-03T09:07:56;99142.97;;;19.02;24.26
62789;BME280;66401;42.016;21.454;2023-02-03T09:10:21;99171.84;;;16.99;26.32
62789;BME280;66401;42.016;21.454;2023-02-03T09:12:47;99169.31;;;20.21;23.26
62789;BME280;66401;42.016;21.454;2023-02-03T09:15:12;99178.19;;;21.35;22.22
62789;BME280;66401;42.016;21.454;2023-02-03T09:17:38;99170.25;;;21.35;22.38
62789;BME280;66401;42.016;21.454;2023-02-03T09:20:04;99176.53;;;20.89;21.79
62789;BME280;66401;42.016;21.454;2023-02-03T09:22:30;99161.50;;;18.84;25.27
62789;BME280;66401;42.016;21.454;2023-02-03T09:24:55;99171.75;;;15.90;30.30
62789;BME280;66401;42.016;21.454;2023-02-03T09:27:21;99163.19;;;15.08;29.53
62789;BME280;66401;42.016;21.454;2023-02-03T09:29:46;99173.75;;;17.49;26.54
62789;BME280;66401;42.016;21.454;2023-02-03T09:32:12;99156.69;;;17.83;26.39
62789;BME280;66401;42.016;21.454;2023-02-03T09:34:37;99176.78;;;18.02;26.62
62789;BME280;66401;42.016;21.454;2023-02-03T09:37:06;99167.81;;;18.46;26.18
62789;BME280;66401;42.016;21.454;2023-02-03T09:39:31;99174.47;;;23.08;20.42
62789;BME280;66401;42.016;21.454;2023-02-03T09:44:55;99160.50;;;19.38;23.64
62789;BME280;66401;42.016;21.454;2023-02-03T09:47:28;99162.63;;;16.83;26.09
62789;BME280;66401;42.016;21.454;2023-02-03T09:50:03;99164.94;;;19.68;22.71
62789;BME280;66401;42.016;21.454;2023-02-03T09:52:36;99163.78;;;19.87;23.22
62789;BME280;66401;42.016;21.454;2023-02-03T09:57:38;99153.00;;;26.11;16.51
62789;BME280;66401;42.016;21.454;2023-02-03T10:03:00;99161.22;;;26.24;16.22
62789;BME280;66401;42.016;21.454;2023-02-03T10:08:32;99147.59;;;19.84;21.89
62789;BME280;66401;42.016;21.454;2023-02-03T10:16:34;99127.88;;;16.68;25.93
62789;BME280;66401;42.016;21.454;2023-02-03T10:19:10;99128.72;;;14.50;29.64
62789;BME280;66401;42.016;21.454;2023-02-03T10:21:47;99114.38;;;13.77;29.87
62789;BME280;66401;42.016;21.454;2023-02-03T10:24:19;99124.25;;;15.98;26.41
62789;BME280;66401;42.016;21.454;2023-02-03T10:26:46;99127.81;;;19.75;23.07
62789;BME280;66401;42.016;21.454;2023-02-03T10:29:35;99123.34;;;22.74;19.45
62789;BME280;66401;42.016;21.454;2023-02-03T10:32:10;99114.09;;;23.03;18.02
62789;BME280;66401;42.016;21.454;2023-02-03T10:34:36;99110.47;;;26.30;15.65
62789;BME280;66401;42.016;21.454;2023-02-03T10:42:04;99112.97;;;20.20;19.94
62789;BME280;66401;42.016;21.454;2023-02-03T10:44:43;99111.19;;;18.60;23.21
62789;BME280;66401;42.016;21.454;2023-02-03T10:47:27;99121.06;;;19.79;22.19
62789;BME280;66401;42.016;21.454;2023-02-03T10:49:56;99107.41;;;23.28;17.85
62789;BME280;66401;42.016;21.454;2023-02-03T10:52:31;99098.38;;;24.13;16.72
62789;BME280;66401;42.016;21.454;2023-02-03T10:54:58;99072.66;;;23.77;17.01
62789;BME280;66401;42.016;21.454;2023-02-03T10:57:25;99094.38;;;23.63;16.51
62789;BME280;66401;42.016;21.454;2023-02-03T11:00:03;99092.56;;;22.29;18.16
62789;BME280;66401;42.016;21.454;2023-02-03T11:02:30;99083.72;;;22.02;18.21
62789;BME280;66401;42.016;21.454;2023-02-03T11:05:09;99093.88;;;22.26;18.41
62789;BME280;66401;42.016;21.454;2023-02-03T11:07:34;99085.22;;;24.59;16.29
62789;BME280;66401;42.016;21.454;2023-02-03T11:10:01;99086.78;;;23.08;17.18
62789;BME280;66401;42.016;21.454;2023-02-03T11:12:26;99079.97;;;24.84;15.77
62789;BME280;66401;42.016;21.454;2023-02-03T11:14:52;99075.63;;;24.43;16.34
62789;BME280;66401;42.016;21.454;2023-02-03T11:17:19;99071.81;;;26.17;15.15
62789;BME280;66401;42.016;21.454;2023-02-03T11:19:48;99061.69;;;26.04;14.27
62789;BME280;66401;42.016;21.454;2023-02-03T11:22:36;99059.19;;;24.92;15.53
62789;BME280;66401;42.016;21.454;2023-02-03T11:25:14;99060.50;;;27.19;13.76
62789;BME280;66401;42.016;21.454;2023-02-03T11:27:41;99052.38;;;22.96;15.57
62789;BME280;66401;42.016;21.454;2023-02-03T11:30:16;99047.22;;;25.30;15.19
62789;BME280;66401;42.016;21.454;2023-02-03T11:32:45;99041.22;;;23.74;15.38
62789;BME280;66401;42.016;21.454;2023-02-03T11:35:16;99040.59;;;24.04;16.60
62789;BME280;66401;42.016;21.454;2023-02-03T11:37:45;99039.97;;;24.90;15.24
62789;BME280;66401;42.016;21.454;2023-02-03T11:42:57;99026.31;;;22.66;15.95
62789;BME280;66401;42.016;21.454;2023-02-03T11:45:25;99046.38;;;24.94;15.31
62789;BME280;66401;42.016;21.454;2023-02-03T11:50:40;99039.97;;;24.69;15.81
62789;BME280;66401;42.016;21.454;2023-02-03T11:53:37;99035.13;;;24.41;14.23
62789;BME280;66401;42.016;21.454;2023-02-03T12:02:07;99024.72;;;22.92;15.95
62789;BME280;66401;42.016;21.454;2023-02-03T12:10:27;99014.66;;;26.18;13.20
62789;BME280;66401;42.016;21.454;2023-02-03T12:21:22;99007.91;;;25.76;12.98
62789;BME280;66401;42.016;21.454;2023-02-03T12:26:27;99003.28;;;21.74;16.95
62789;BME280;66401;42.016;21.454;2023-02-03T12:29:02;98996.91;;;23.42;15.32
62789;BME280;66401;42.016;21.454;2023-02-03T12:32:11;98989.47;;;22.43;16.88
62789;BME280;66401;42.016;21.454;2023-02-03T12:34:49;98960.28;;;22.75;16.88
62789;BME280;66401;42.016;21.454;2023-02-03T12:37:41;98973.81;;;21.32;18.57
62789;BME280;66401;42.016;21.454;2023-02-03T12:40:14;98956.31;;;22.45;18.43
62789;BME280;66401;42.016;21.454;2023-02-03T12:42:49;98967.84;;;20.86;18.60
62789;BME280;66401;42.016;21.454;2023-02-03T12:45:24;98957.88;;;20.60;19.31
62789;BME280;66401;42.016;21.454;2023-02-03T12:48:01;98939.19;;;20.66;18.42
62789;BME280;66401;42.016;21.454;2023-02-03T12:50:43;98945.28;;;19.29;18.63
62789;BME280;66401;42.016;21.454;2023-02-03T12:53:27;98949.78;;;18.82;19.25
62789;BME280;66401;42.016;21.454;2023-02-03T12:56:03;98938.03;;;18.66;20.39
62789;BME280;66401;42.016;21.454;2023-02-03T12:58:35;98950.41;;;19.48;20.01
62789;BME280;66401;42.016;21.454;2023-02-03T13:01:23;98954.81;;;19.42;19.57
62789;BME280;66401;42.016;21.454;2023-02-03T13:06:56;98950.66;;;19.46;19.45
62789;BME280;66401;42.016;21.454;2023-02-03T13:12:30;98956.88;;;19.05;20.81
62789;BME280;66401;42.016;21.454;2023-02-03T13:17:48;98950.00;;;18.92;21.11
62789;BME280;66401;42.016;21.454;2023-02-03T13:20:18;98940.22;;;18.69;21.12
62789;BME280;66401;42.016;21.454;2023-02-03T13:22:43;98932.50;;;17.48;22.37
62789;BME280;66401;42.016;21.454;2023-02-03T13:25:25;98925.53;;;17.53;22.29
62789;BME280;66401;42.016;21.454;2023-02-03T13:41:16;98895.16;;;17.51;21.66
62789;BME280;66401;42.016;21.454;2023-02-03T13:43:49;98906.88;;;16.75;22.49
62789;BME280;66401;42.016;21.454;2023-02-03T13:46:27;98903.50;;;16.36;24.01
62789;BME280;66401;42.016;21.454;2023-02-03T13:48:57;98901.97;;;16.78;23.04
62789;BME280;66401;42.016;21.454;2023-02-03T13:51:26;98902.06;;;16.65;24.11
62789;BME280;66401;42.016;21.454;2023-02-03T13:54:13;98899.38;;;16.47;24.62
62789;BME280;66401;42.016;21.454;2023-02-03T13:56:41;98894.53;;;15.81;24.82
62789;BME280;66401;42.016;21.454;2023-02-03T14:01:39;98898.59;;;15.77;26.05
62789;BME280;66401;42.016;21.454;2023-02-03T14:04:07;98898.53;;;15.90;23.68
62789;BME280;66401;42.016;21.454;2023-02-03T14:14:41;98891.69;;;15.82;24.45
62789;BME280;66401;42.016;21.454;2023-02-03T14:19:58;98894.91;;;15.33;25.47
62789;BME280;66401;42.016;21.454;2023-02-03T14:22:24;98905.06;;;15.09;25.77
62789;BME280;66401;42.016;21.454;2023-02-03T14:24:53;98896.00;;;14.85;27.27
62789;BME280;66401;42.016;21.454;2023-02-03T14:27:25;98878.22;;;14.15;28.13
62789;BME280;66401;42.016;21.454;2023-02-03T14:30:05;98899.81;;;14.30;27.17
62789;BME280;66401;42.016;21.454;2023-02-03T14:32:50;98901.22;;;14.26;28.20
62789;BME280;66401;42.016;21.454;2023-02-03T14:35:18;98900.56;;;13.91;27.92
62789;BME280;66401;42.016;21.454;2023-02-03T14:37:56;98894.91;;;13.39;28.16
62789;BME280;66401;42.016;21.454;2023-02-03T14:56:53;98875.06;;;11.75;29.72
62789;BME280;66401;42.016;21.454;2023-02-03T15:00:07;98875.16;;;11.31;30.50
62789;BME280;66401;42.016;21.454;2023-02-03T15:07:57;98875.00;;;10.51;32.69
62789;BME280;66401;42.016;21.454;2023-02-03T15:10:28;98879.47;;;10.42;32.92
62789;BME280;66401;42.016;21.454;2023-02-03T15:12:56;98870.50;;;10.22;33.26
62789;BME280;66401;42.016;21.454;2023-02-03T15:15:30;98864.97;;;10.25;33.51
62789;BME280;66401;42.016;21.454;2023-02-03T15:17:58;98847.94;;;10.37;33.62
62789;BME280;66401;42.016;21.454;2023-02-03T15:20:37;98843.78;;;10.28;33.45
62789;BME280;66401;42.016;21.454;2023-02-03T15:23:19;98837.63;;;10.21;33.20
62789;BME280;66401;42.016;21.454;2023-02-03T15:25:52;98831.28;;;10.00;33.77
62789;BME280;66401;42.016;21.454;2023-02-03T15:28:22;98830.34;;;9.93;33.44
62789;BME280;66401;42.016;21.454;2023-02-03T15:30:57;98822.66;;;9.77;33.03